sensor_id;sensor_type;location;lat;lon;timestamp;temperature;humidity
1626;DHT22;806;48.770;9.156;2022-12-29T00:00:07;9.20;99.90
1626;DHT22;806;48.770;9.156;2022-12-29T00:02:34;9.20;99.90
1626;DHT22;806;48.770;9.156;2022-12-29T00:05:02;9.20;99.90
1626;DHT22;806;48.770;9.156;2022-12-29T00:07:31;9.20;99.90
1626;DHT22;806;48.770;9.156;2022-12-29T00:09:58;9.20;99.90
1626;DHT22;806;48.770;9.156;2022-12-29T00:12:25;9.30;99.90
1626;DHT22;806;48.770;9.156;2022-12-29T00:15:15;9.30;99.90
1626;DHT22;806;48.770;9.156;2022-12-29T00:18:00;9.30;99.90
1626;DHT22;806;48.770;9.156;2022-12-29T00:20:27;9.30;99.90
1626;DHT22;806;48.770;9.156;2022-12-29T00:23:13;9.30;99.90
1626;DHT22;806;48.770;9.156;2022-12-29T00:26:02;9.40;99.90
1626;DHT22;806;48.770;9.156;2022-12-29T00:28:46;9.40;99.90
1626;DHT22;806;48.770;9.156;2022-12-29T00:31:31;9.40;99.90
1626;DHT22;806;48.770;9.156;2022-12-29T00:34:15;9.50;99.90
1626;DHT22;806;48.770;9.156;2022-12-29T00:37:00;9.60;99.90
1626;DHT22;806;48.770;9.156;2022-12-29T00:39:29;9.60;99.90
1626;DHT22;806;48.770;9.156;2022-12-29T00:42:14;9.60;99.90
1626;DHT22;806;48.770;9.156;2022-12-29T00:44:58;9.70;99.90
1626;DHT22;806;48.770;9.156;2022-12-29T00:47:25;9.80;99.90
1626;DHT22;806;48.770;9.156;2022-12-29T00:49:53;9.80;99.90
1626;DHT22;806;48.770;9.156;2022-12-29T00:52:19;9.80;99.90
1626;DHT22;806;48.770;9.156;2022-12-29T00:54:47;9.90;99.90
1626;DHT22;806;48.770;9.156;2022-12-29T00:57:14;9.90;99.90
1626;DHT22;806;48.770;9.156;2022-12-29T00:59:42;9.80;99.90
1626;DHT22;806;48.770;9.156;2022-12-29T01:02:10;9.80;99.90
1626;DHT22;806;48.770;9.156;2022-12-29T01:04:38;9.80;99.90
1626;DHT22;806;48.770;9.156;2022-12-29T01:07:05;9.80;99.90
1626;DHT22;806;48.770;9.156;2022-12-29T01:09:32;9.80;99.90
1626;DHT22;806;48.770;9.156;2022-12-29T01:12:18;9.90;99.90
1626;DHT22;806;48.770;9.156;2022-12-29T01:15:07;9.90;99.90
1626;DHT22;806;48.770;9.156;2022-12-29T01:17:35;10.00;99.90
1626;DHT22;806;48.770;9.156;2022-12-29T01:20:02;9.90;99.90
1626;DHT22;806;48.770;9.156;2022-12-29T01:22:29;9.90;99.90
1626;DHT22;806;48.770;9.156;2022-12-29T01:24:56;9.90;99.90
1626;DHT22;806;48.770;9.156;2022-12-29T01:27:25;9.90;99.90
1626;DHT22;806;48.770;9.156;2022-12-29T01:29:52;9.90;99.90
1626;DHT22;806;48.770;9.156;2022-12-29T01:32:20;9.90;99.90
1626;DHT22;806;48.770;9.156;2022-12-29T01:34:47;9.90;99.90
1626;DHT22;806;48.770;9.156;2022-12-29T01:37:14;10.00;99.90
1626;DHT22;806;48.770;9.156;2022-12-29T01:39:41;9.90;99.90
1626;DHT22;806;48.770;9.156;2022-12-29T01:42:16;9.90;99.90
1626;DHT22;806;48.770;9.156;2022-12-29T01:44:55;9.80;99.90
1626;DHT22;806;48.770;9.156;2022-12-29T01:47:30;9.80;99.90
1626;DHT22;806;48.770;9.156;2022-12-29T01:50:00;9.90;99.90
1626;DHT22;806;48.770;9.156;2022-12-29T01:52:31;9.90;99.90
1626;DHT22;806;48.770;9.156;2022-12-29T01:54:59;9.90;99.90
1626;DHT22;806;48.770;9.156;2022-12-29T01:57:31;9.90;99.90
1626;DHT22;806;48.770;9.156;2022-12-29T02:00:04;9.80;99.90
1626;DHT22;806;48.770;9.156;2022-12-29T02:02:33;9.70;99.90
1626;DHT22;806;48.770;9.156;2022-12-29T02:05:04;9.70;99.90
1626;DHT22;806;48.770;9.156;2022-12-29T02:07:32;9.70;99.90
1626;DHT22;806;48.770;9.156;2022-12-29T02:16:58;9.50;99.90
1626;DHT22;806;48.770;9.156;2022-12-29T02:19:53;9.50;99.90
1626;DHT22;806;48.770;9.156;2022-12-29T02:22:31;9.40;99.90
1626;DHT22;806;48.770;9.156;2022-12-29T02:25:27;9.40;99.90
1626;DHT22;806;48.770;9.156;2022-12-29T02:31:09;9.30;99.90
1626;DHT22;806;48.770;9.156;2022-12-29T02:33:49;9.20;99.90
1626;DHT22;806;48.770;9.156;2022-12-29T02:36:25;9.10;99.90
1626;DHT22;806;48.770;9.156;2022-12-29T02:39:04;9.20;99.90
1626;DHT22;806;48.770;9.156;2022-12-29T02:41:44;9.20;99.90
1626;DHT22;806;48.770;9.156;2022-12-29T02:44:21;9.20;99.90
1626;DHT22;806;48.770;9.156;2022-12-29T02:46:54;9.20;99.90
1626;DHT22;806;48.770;9.156;2022-12-29T02:49:32;9.20;99.90
1626;DHT22;806;48.770;9.156;2022-12-29T02:52:03;9.20;99.90
1626;DHT22;806;48.770;9.156;2022-12-29T02:54:33;9.10;99.90
1626;DHT22;806;48.770;9.156;2022-12-29T02:57:12;9.00;99.90
1626;DHT22;806;48.770;9.156;2022-12-29T02:59:40;9.00;99.90
1626;DHT22;806;48.770;9.156;2022-12-29T03:05:25;9.00;99.90
1626;DHT22;806;48.770;9.156;2022-12-29T03:08:04;9.00;99.90
1626;DHT22;806;48.770;9.156;2022-12-29T03:10:40;9.00;99.90
1626;DHT22;806;48.770;9.156;2022-12-29T03:13:13;9.00;99.90
1626;DHT22;806;48.770;9.156;2022-12-29T03:16:05;8.90;99.90
1626;DHT22;806;48.770;9.156;2022-12-29T03:18:41;8.90;99.90
1626;DHT22;806;48.770;9.156;2022-12-29T03:21:14;9.00;99.90
1626;DHT22;806;48.770;9.156;2022-12-29T03:23:45;9.00;99.90
1626;DHT22;806;48.770;9.156;2022-12-29T03:26:16;8.90;99.90
1626;DHT22;806;48.770;9.156;2022-12-29T03:28:47;8.90;99.90
1626;DHT22;806;48.770;9.156;2022-12-29T03:31:16;9.00;99.90
1626;DHT22;806;48.770;9.156;2022-12-29T03:33:46;9.00;99.90
1626;DHT22;806;48.770;9.156;2022-12-29T03:36:20;9.00;99.90
1626;DHT22;806;48.770;9.156;2022-12-29T03:38:55;9.00;99.90
1626;DHT22;806;48.770;9.156;2022-12-29T03:41:28;9.00;99.90
1626;DHT22;806;48.770;9.156;2022-12-29T03:43:57;9.10;99.90
1626;DHT22;806;48.770;9.156;2022-12-29T03:46:24;9.20;99.90
1626;DHT22;806;48.770;9.156;2022-12-29T03:48:51;9.40;99.90
1626;DHT22;806;48.770;9.156;2022-12-29T03:51:20;9.70;99.90
1626;DHT22;806;48.770;9.156;2022-12-29T03:53:47;10.00;99.90
1626;DHT22;806;48.770;9.156;2022-12-29T03:56:14;10.20;99.90
1626;DHT22;806;48.770;9.156;2022-12-29T03:58:42;10.30;99.90
1626;DHT22;806;48.770;9.156;2022-12-29T04:01:09;10.60;99.90
1626;DHT22;806;48.770;9.156;2022-12-29T04:03:36;10.80;99.90
1626;DHT22;806;48.770;9.156;2022-12-29T04:06:04;11.00;99.90
1626;DHT22;806;48.770;9.156;2022-12-29T04:08:33;11.00;99.90
1626;DHT22;806;48.770;9.156;2022-12-29T04:11:00;11.00;99.90
1626;DHT22;806;48.770;9.156;2022-12-29T04:13:27;11.00;99.90
1626;DHT22;806;48.770;9.156;2022-12-29T04:15:54;10.80;99.90
1626;DHT22;806;48.770;9.156;2022-12-29T04:18:21;10.80;99.90
1626;DHT22;806;48.770;9.156;2022-12-29T04:20:49;10.70;99.90
1626;DHT22;806;48.770;9.156;2022-12-29T04:23:30;10.60;99.90
1626;DHT22;806;48.770;9.156;2022-12-29T04:25:59;10.50;99.90
1626;DHT22;806;48.770;9.156;2022-12-29T04:28:27;10.50;99.90
1626;DHT22;806;48.770;9.156;2022-12-29T04:30:54;10.50;99.90
1626;DHT22;806;48.770;9.156;2022-12-29T04:33:22;10.50;99.90
1626;DHT22;806;48.770;9.156;2022-12-29T04:35:50;10.60;99.90
1626;DHT22;806;48.770;9.156;2022-12-29T04:38:19;10.60;99.90
1626;DHT22;806;48.770;9.156;2022-12-29T04:40:46;10.60;99.90
1626;DHT22;806;48.770;9.156;2022-12-29T04:43:16;10.60;99.90
1626;DHT22;806;48.770;9.156;2022-12-29T04:45:44;10.70;99.90
1626;DHT22;806;48.770;9.156;2022-12-29T04:48:12;10.60;99.90
1626;DHT22;806;48.770;9.156;2022-12-29T04:50:40;10.50;99.90
1626;DHT22;806;48.770;9.156;2022-12-29T04:53:07;10.60;99.90
1626;DHT22;806;48.770;9.156;2022-12-29T04:55:35;10.80;99.90
1626;DHT22;806;48.770;9.156;2022-12-29T04:58:02;11.00;99.90
1626;DHT22;806;48.770;9.156;2022-12-29T05:00:31;11.10;99.90
1626;DHT22;806;48.770;9.156;2022-12-29T05:02:58;11.20;99.90
1626;DHT22;806;48.770;9.156;2022-12-29T05:05:25;11.30;99.90
1626;DHT22;806;48.770;9.156;2022-12-29T05:07:52;11.30;99.90
1626;DHT22;806;48.770;9.156;2022-12-29T05:10:20;11.20;99.90
1626;DHT22;806;48.770;9.156;2022-12-29T05:12:47;11.30;99.90
1626;DHT22;806;48.770;9.156;2022-12-29T05:15:14;11.30;99.90
1626;DHT22;806;48.770;9.156;2022-12-29T05:17:43;11.20;99.90
1626;DHT22;806;48.770;9.156;2022-12-29T05:20:11;11.30;99.90
1626;DHT22;806;48.770;9.156;2022-12-29T05:22:38;11.40;99.90
1626;DHT22;806;48.770;9.156;2022-12-29T05:25:06;11.40;99.90
1626;DHT22;806;48.770;9.156;2022-12-29T05:27:33;11.30;99.90
1626;DHT22;806;48.770;9.156;2022-12-29T05:30:00;11.30;99.90
1626;DHT22;806;48.770;9.156;2022-12-29T05:32:27;11.30;99.90
1626;DHT22;806;48.770;9.156;2022-12-29T05:34:56;11.30;99.90
1626;DHT22;806;48.770;9.156;2022-12-29T05:37:23;11.30;99.90
1626;DHT22;806;48.770;9.156;2022-12-29T05:39:50;11.20;99.90
1626;DHT22;806;48.770;9.156;2022-12-29T05:42:18;11.10;99.90
1626;DHT22;806;48.770;9.156;2022-12-29T05:44:45;11.10;99.90
1626;DHT22;806;48.770;9.156;2022-12-29T05:47:12;11.10;99.90
1626;DHT22;806;48.770;9.156;2022-12-29T05:49:39;11.00;99.90
1626;DHT22;806;48.770;9.156;2022-12-29T05:52:08;11.00;99.90
1626;DHT22;806;48.770;9.156;2022-12-29T05:54:35;11.10;99.90
1626;DHT22;806;48.770;9.156;2022-12-29T05:57:03;11.20;99.90
1626;DHT22;806;48.770;9.156;2022-12-29T05:59:30;11.20;99.90
1626;DHT22;806;48.770;9.156;2022-12-29T06:01:57;11.10;99.90
1626;DHT22;806;48.770;9.156;2022-12-29T06:04:25;11.10;99.90
1626;DHT22;806;48.770;9.156;2022-12-29T06:06:52;11.10;99.90
1626;DHT22;806;48.770;9.156;2022-12-29T06:09:20;11.10;99.90
1626;DHT22;806;48.770;9.156;2022-12-29T06:11:48;11.10;99.90
1626;DHT22;806;48.770;9.156;2022-12-29T06:14:15;11.10;99.90
1626;DHT22;806;48.770;9.156;2022-12-29T06:16:42;11.10;99.90
1626;DHT22;806;48.770;9.156;2022-12-29T06:19:09;11.10;99.90
1626;DHT22;806;48.770;9.156;2022-12-29T06:21:37;11.10;99.90
1626;DHT22;806;48.770;9.156;2022-12-29T06:24:05;11.00;99.90
1626;DHT22;806;48.770;9.156;2022-12-29T06:26:33;11.00;99.90
1626;DHT22;806;48.770;9.156;2022-12-29T06:29:01;10.90;99.90
1626;DHT22;806;48.770;9.156;2022-12-29T06:31:28;10.90;99.90
1626;DHT22;806;48.770;9.156;2022-12-29T06:33:55;11.00;99.90
1626;DHT22;806;48.770;9.156;2022-12-29T06:36:23;11.20;99.90
1626;DHT22;806;48.770;9.156;2022-12-29T06:38:50;11.20;99.90
1626;DHT22;806;48.770;9.156;2022-12-29T06:41:18;11.20;99.90
1626;DHT22;806;48.770;9.156;2022-12-29T06:43:46;11.10;99.90
1626;DHT22;806;48.770;9.156;2022-12-29T06:46:14;11.10;99.90
1626;DHT22;806;48.770;9.156;2022-12-29T06:48:41;11.10;99.90
1626;DHT22;806;48.770;9.156;2022-12-29T06:51:08;11.00;99.90
1626;DHT22;806;48.770;9.156;2022-12-29T06:53:36;11.00;99.90
1626;DHT22;806;48.770;9.156;2022-12-29T06:56:03;10.90;99.90
1626;DHT22;806;48.770;9.156;2022-12-29T06:58:31;10.90;99.90
1626;DHT22;806;48.770;9.156;2022-12-29T07:00:59;10.80;99.90
1626;DHT22;806;48.770;9.156;2022-12-29T07:03:27;10.80;99.90
1626;DHT22;806;48.770;9.156;2022-12-29T07:05:54;10.80;99.90
1626;DHT22;806;48.770;9.156;2022-12-29T07:08:23;10.70;99.90
1626;DHT22;806;48.770;9.156;2022-12-29T07:10:50;10.70;99.90
1626;DHT22;806;48.770;9.156;2022-12-29T07:13:18;10.60;99.90
1626;DHT22;806;48.770;9.156;2022-12-29T07:15:45;10.60;99.90
1626;DHT22;806;48.770;9.156;2022-12-29T07:18:14;10.60;99.90
1626;DHT22;806;48.770;9.156;2022-12-29T07:20:41;10.50;99.90
1626;DHT22;806;48.770;9.156;2022-12-29T07:23:08;10.50;99.90
1626;DHT22;806;48.770;9.156;2022-12-29T07:25:36;10.50;99.90
1626;DHT22;806;48.770;9.156;2022-12-29T07:28:03;10.40;99.90
1626;DHT22;806;48.770;9.156;2022-12-29T07:30:30;10.30;99.90
1626;DHT22;806;48.770;9.156;2022-12-29T07:32:58;10.30;99.90
1626;DHT22;806;48.770;9.156;2022-12-29T07:35:26;10.30;99.90
1626;DHT22;806;48.770;9.156;2022-12-29T07:37:53;10.30;99.90
1626;DHT22;806;48.770;9.156;2022-12-29T07:40:21;10.30;99.90
1626;DHT22;806;48.770;9.156;2022-12-29T07:42:48;10.30;99.90
1626;DHT22;806;48.770;9.156;2022-12-29T07:45:15;10.30;99.90
1626;DHT22;806;48.770;9.156;2022-12-29T07:47:42;10.30;99.90
1626;DHT22;806;48.770;9.156;2022-12-29T07:50:10;10.20;99.90
1626;DHT22;806;48.770;9.156;2022-12-29T07:52:38;10.20;99.90
1626;DHT22;806;48.770;9.156;2022-12-29T07:55:06;10.20;99.90
1626;DHT22;806;48.770;9.156;2022-12-29T07:57:34;10.30;99.90
1626;DHT22;806;48.770;9.156;2022-12-29T08:00:02;10.30;99.90
1626;DHT22;806;48.770;9.156;2022-12-29T08:02:29;10.30;99.90
1626;DHT22;806;48.770;9.156;2022-12-29T08:04:56;10.30;99.90
1626;DHT22;806;48.770;9.156;2022-12-29T08:07:24;10.30;99.90
1626;DHT22;806;48.770;9.156;2022-12-29T08:09:52;10.30;99.90
1626;DHT22;806;48.770;9.156;2022-12-29T08:12:19;10.30;99.90
1626;DHT22;806;48.770;9.156;2022-12-29T08:14:47;10.30;99.90
1626;DHT22;806;48.770;9.156;2022-12-29T08:17:14;10.30;99.90
1626;DHT22;806;48.770;9.156;2022-12-29T08:19:41;10.30;99.90
1626;DHT22;806;48.770;9.156;2022-12-29T08:22:09;10.40;99.90
1626;DHT22;806;48.770;9.156;2022-12-29T08:24:36;10.50;99.90
1626;DHT22;806;48.770;9.156;2022-12-29T08:27:05;10.50;99.90
1626;DHT22;806;48.770;9.156;2022-12-29T08:29:32;10.50;99.90
1626;DHT22;806;48.770;9.156;2022-12-29T08:31:59;10.60;99.90
1626;DHT22;806;48.770;9.156;2022-12-29T08:34:30;10.60;99.90
1626;DHT22;806;48.770;9.156;2022-12-29T08:36:58;10.60;99.90
1626;DHT22;806;48.770;9.156;2022-12-29T08:39:25;10.70;99.90
1626;DHT22;806;48.770;9.156;2022-12-29T08:41:53;10.70;99.90
1626;DHT22;806;48.770;9.156;2022-12-29T08:44:22;10.70;99.90
1626;DHT22;806;48.770;9.156;2022-12-29T08:46:49;10.60;99.90
1626;DHT22;806;48.770;9.156;2022-12-29T08:49:16;10.60;99.90
1626;DHT22;806;48.770;9.156;2022-12-29T08:51:44;10.60;99.90
1626;DHT22;806;48.770;9.156;2022-12-29T08:54:11;10.70;99.90
1626;DHT22;806;48.770;9.156;2022-12-29T08:56:38;10.80;99.90
1626;DHT22;806;48.770;9.156;2022-12-29T08:59:05;10.80;99.90
1626;DHT22;806;48.770;9.156;2022-12-29T09:01:34;10.90;99.90
1626;DHT22;806;48.770;9.156;2022-12-29T09:04:06;11.00;99.90
1626;DHT22;806;48.770;9.156;2022-12-29T09:06:33;11.00;99.90
1626;DHT22;806;48.770;9.156;2022-12-29T09:09:01;11.00;99.90
1626;DHT22;806;48.770;9.156;2022-12-29T09:11:28;11.00;99.90
1626;DHT22;806;48.770;9.156;2022-12-29T09:13:55;11.10;99.90
1626;DHT22;806;48.770;9.156;2022-12-29T09:16:24;11.20;99.90
1626;DHT22;806;48.770;9.156;2022-12-29T09:18:54;11.30;99.90
1626;DHT22;806;48.770;9.156;2022-12-29T09:21:21;11.40;99.90
1626;DHT22;806;48.770;9.156;2022-12-29T09:23:48;11.50;99.90
1626;DHT22;806;48.770;9.156;2022-12-29T09:26:15;11.60;99.90
1626;DHT22;806;48.770;9.156;2022-12-29T09:28:42;11.70;99.90
1626;DHT22;806;48.770;9.156;2022-12-29T09:31:11;11.70;99.90
1626;DHT22;806;48.770;9.156;2022-12-29T09:33:38;11.80;99.90
1626;DHT22;806;48.770;9.156;2022-12-29T09:36:08;11.90;99.90
1626;DHT22;806;48.770;9.156;2022-12-29T09:38:35;12.00;99.90
1626;DHT22;806;48.770;9.156;2022-12-29T09:41:10;12.00;99.90
1626;DHT22;806;48.770;9.156;2022-12-29T09:46:35;12.10;99.90
1626;DHT22;806;48.770;9.156;2022-12-29T09:49:16;12.20;99.90
1626;DHT22;806;48.770;9.156;2022-12-29T09:51:49;12.20;99.90
1626;DHT22;806;48.770;9.156;2022-12-29T09:54:36;12.20;99.90
1626;DHT22;806;48.770;9.156;2022-12-29T09:57:15;12.30;99.90
1626;DHT22;806;48.770;9.156;2022-12-29T09:59:45;12.40;99.90
1626;DHT22;806;48.770;9.156;2022-12-29T10:02:25;12.50;99.90
1626;DHT22;806;48.770;9.156;2022-12-29T10:04:54;12.50;99.90
1626;DHT22;806;48.770;9.156;2022-12-29T10:07:31;12.50;99.90
1626;DHT22;806;48.770;9.156;2022-12-29T10:10:11;12.50;99.90
1626;DHT22;806;48.770;9.156;2022-12-29T10:12:55;12.50;99.90
1626;DHT22;806;48.770;9.156;2022-12-29T10:15:53;12.60;99.90
1626;DHT22;806;48.770;9.156;2022-12-29T10:18:37;12.60;99.90
1626;DHT22;806;48.770;9.156;2022-12-29T10:21:15;12.70;99.90
1626;DHT22;806;48.770;9.156;2022-12-29T10:23:48;12.80;99.90
1626;DHT22;806;48.770;9.156;2022-12-29T10:26:19;12.90;99.90
1626;DHT22;806;48.770;9.156;2022-12-29T10:28:49;13.00;99.90
1626;DHT22;806;48.770;9.156;2022-12-29T10:31:22;13.10;99.90
1626;DHT22;806;48.770;9.156;2022-12-29T10:33:52;13.10;99.90
1626;DHT22;806;48.770;9.156;2022-12-29T10:36:25;13.20;99.90
1626;DHT22;806;48.770;9.156;2022-12-29T10:39:05;13.20;99.90
1626;DHT22;806;48.770;9.156;2022-12-29T10:41:39;13.30;99.90
1626;DHT22;806;48.770;9.156;2022-12-29T10:44:10;13.30;99.90
1626;DHT22;806;48.770;9.156;2022-12-29T10:46:40;13.40;99.90
1626;DHT22;806;48.770;9.156;2022-12-29T10:49:15;13.50;99.90
1626;DHT22;806;48.770;9.156;2022-12-29T10:51:44;13.50;99.90
1626;DHT22;806;48.770;9.156;2022-12-29T10:54:18;13.60;99.90
1626;DHT22;806;48.770;9.156;2022-12-29T10:56:49;13.60;99.90
1626;DHT22;806;48.770;9.156;2022-12-29T10:59:21;13.70;99.90
1626;DHT22;806;48.770;9.156;2022-12-29T11:01:56;13.90;99.90
1626;DHT22;806;48.770;9.156;2022-12-29T11:04:40;14.00;99.90
1626;DHT22;806;48.770;9.156;2022-12-29T11:07:10;14.00;99.90
1626;DHT22;806;48.770;9.156;2022-12-29T11:09:40;14.00;99.90
1626;DHT22;806;48.770;9.156;2022-12-29T11:12:31;13.90;99.90
1626;DHT22;806;48.770;9.156;2022-12-29T11:15:12;13.80;99.90
1626;DHT22;806;48.770;9.156;2022-12-29T11:17:48;13.80;99.90
1626;DHT22;806;48.770;9.156;2022-12-29T11:20:34;13.70;99.90
1626;DHT22;806;48.770;9.156;2022-12-29T11:23:06;13.80;99.90
1626;DHT22;806;48.770;9.156;2022-12-29T11:26:07;13.80;99.90
1626;DHT22;806;48.770;9.156;2022-12-29T11:28:37;13.70;99.90
1626;DHT22;806;48.770;9.156;2022-12-29T11:31:06;13.70;99.90
1626;DHT22;806;48.770;9.156;2022-12-29T11:33:35;13.60;99.90
1626;DHT22;806;48.770;9.156;2022-12-29T11:36:06;13.60;99.90
1626;DHT22;806;48.770;9.156;2022-12-29T11:38:36;13.60;99.90
1626;DHT22;806;48.770;9.156;2022-12-29T11:41:09;13.50;99.90
1626;DHT22;806;48.770;9.156;2022-12-29T11:43:38;13.50;99.90
1626;DHT22;806;48.770;9.156;2022-12-29T11:46:15;13.30;99.90
1626;DHT22;806;48.770;9.156;2022-12-29T11:48:43;13.20;99.90
1626;DHT22;806;48.770;9.156;2022-12-29T11:51:11;13.10;99.90
1626;DHT22;806;48.770;9.156;2022-12-29T11:53:44;13.10;99.90
1626;DHT22;806;48.770;9.156;2022-12-29T11:56:15;13.10;99.90
1626;DHT22;806;48.770;9.156;2022-12-29T11:58:43;12.90;99.90
1626;DHT22;806;48.770;9.156;2022-12-29T12:01:15;12.90;99.90
1626;DHT22;806;48.770;9.156;2022-12-29T12:03:47;12.90;99.90
1626;DHT22;806;48.770;9.156;2022-12-29T12:06:17;12.90;99.90
1626;DHT22;806;48.770;9.156;2022-12-29T12:08:51;12.90;99.90
1626;DHT22;806;48.770;9.156;2022-12-29T12:11:25;12.80;99.90
1626;DHT22;806;48.770;9.156;2022-12-29T12:14:00;12.70;99.90
1626;DHT22;806;48.770;9.156;2022-12-29T12:16:35;12.60;99.90
1626;DHT22;806;48.770;9.156;2022-12-29T12:19:14;12.60;99.90
1626;DHT22;806;48.770;9.156;2022-12-29T12:21:49;12.60;99.90
1626;DHT22;806;48.770;9.156;2022-12-29T12:24:31;12.60;99.90
1626;DHT22;806;48.770;9.156;2022-12-29T12:27:11;12.60;99.90
1626;DHT22;806;48.770;9.156;2022-12-29T12:29:45;12.60;99.90
1626;DHT22;806;48.770;9.156;2022-12-29T12:32:17;12.60;99.90
1626;DHT22;806;48.770;9.156;2022-12-29T12:34:47;12.80;99.90
1626;DHT22;806;48.770;9.156;2022-12-29T12:37:38;12.90;99.90
1626;DHT22;806;48.770;9.156;2022-12-29T12:40:32;12.90;99.90
1626;DHT22;806;48.770;9.156;2022-12-29T12:46:02;12.70;99.90
1626;DHT22;806;48.770;9.156;2022-12-29T12:48:51;12.60;99.90
1626;DHT22;806;48.770;9.156;2022-12-29T12:51:30;12.60;99.90
1626;DHT22;806;48.770;9.156;2022-12-29T12:54:12;12.50;99.90
1626;DHT22;806;48.770;9.156;2022-12-29T12:57:01;12.50;99.90
1626;DHT22;806;48.770;9.156;2022-12-29T12:59:39;12.40;99.90
1626;DHT22;806;48.770;9.156;2022-12-29T13:02:19;12.50;99.90
1626;DHT22;806;48.770;9.156;2022-12-29T13:05:19;12.50;99.90
1626;DHT22;806;48.770;9.156;2022-12-29T13:08:00;12.50;99.90
1626;DHT22;806;48.770;9.156;2022-12-29T13:10:41;12.60;99.90
1626;DHT22;806;48.770;9.156;2022-12-29T13:13:39;12.60;99.90
1626;DHT22;806;48.770;9.156;2022-12-29T13:16:23;12.60;99.90
1626;DHT22;806;48.770;9.156;2022-12-29T13:18:56;12.70;99.90
1626;DHT22;806;48.770;9.156;2022-12-29T13:21:35;12.70;99.90
1626;DHT22;806;48.770;9.156;2022-12-29T13:24:11;12.80;99.90
1626;DHT22;806;48.770;9.156;2022-12-29T13:26:44;12.80;99.90
1626;DHT22;806;48.770;9.156;2022-12-29T13:29:16;12.70;99.90
1626;DHT22;806;48.770;9.156;2022-12-29T13:31:52;12.70;99.90
1626;DHT22;806;48.770;9.156;2022-12-29T13:34:29;12.70;99.90
1626;DHT22;806;48.770;9.156;2022-12-29T13:37:00;12.60;99.90
1626;DHT22;806;48.770;9.156;2022-12-29T13:39:33;12.60;99.90
1626;DHT22;806;48.770;9.156;2022-12-29T13:42:03;12.50;99.90
1626;DHT22;806;48.770;9.156;2022-12-29T13:44:33;12.50;99.90
1626;DHT22;806;48.770;9.156;2022-12-29T13:47:10;12.50;99.90
1626;DHT22;806;48.770;9.156;2022-12-29T13:49:40;12.50;99.90
1626;DHT22;806;48.770;9.156;2022-12-29T13:52:13;12.50;99.90
1626;DHT22;806;48.770;9.156;2022-12-29T13:54:52;12.50;99.90
1626;DHT22;806;48.770;9.156;2022-12-29T13:57:31;12.50;99.90
1626;DHT22;806;48.770;9.156;2022-12-29T14:00:02;12.50;99.90
1626;DHT22;806;48.770;9.156;2022-12-29T14:02:42;12.50;99.90
1626;DHT22;806;48.770;9.156;2022-12-29T14:05:28;12.50;99.90
1626;DHT22;806;48.770;9.156;2022-12-29T14:08:00;12.50;99.90
1626;DHT22;806;48.770;9.156;2022-12-29T14:10:30;12.40;99.90
1626;DHT22;806;48.770;9.156;2022-12-29T14:13:04;12.40;99.90
1626;DHT22;806;48.770;9.156;2022-12-29T14:15:32;12.40;99.90
1626;DHT22;806;48.770;9.156;2022-12-29T14:18:10;12.40;99.90
1626;DHT22;806;48.770;9.156;2022-12-29T14:20:39;12.40;99.90
1626;DHT22;806;48.770;9.156;2022-12-29T14:23:26;12.40;99.90
1626;DHT22;806;48.770;9.156;2022-12-29T14:26:00;12.30;99.90
1626;DHT22;806;48.770;9.156;2022-12-29T14:28:37;12.30;99.90
1626;DHT22;806;48.770;9.156;2022-12-29T14:31:07;12.20;99.90
1626;DHT22;806;48.770;9.156;2022-12-29T14:37:01;12.30;99.90
1626;DHT22;806;48.770;9.156;2022-12-29T14:39:35;12.20;99.90
1626;DHT22;806;48.770;9.156;2022-12-29T14:42:05;12.10;99.90
1626;DHT22;806;48.770;9.156;2022-12-29T14:44:33;12.10;99.90
1626;DHT22;806;48.770;9.156;2022-12-29T14:47:06;12.10;99.90
1626;DHT22;806;48.770;9.156;2022-12-29T14:49:41;12.00;99.90
1626;DHT22;806;48.770;9.156;2022-12-29T14:52:17;12.00;99.90
1626;DHT22;806;48.770;9.156;2022-12-29T14:54:48;12.00;99.90
1626;DHT22;806;48.770;9.156;2022-12-29T14:57:36;12.10;99.90
1626;DHT22;806;48.770;9.156;2022-12-29T15:00:22;12.10;99.90
1626;DHT22;806;48.770;9.156;2022-12-29T15:02:59;12.00;99.90
1626;DHT22;806;48.770;9.156;2022-12-29T15:05:42;12.00;99.90
1626;DHT22;806;48.770;9.156;2022-12-29T15:08:17;12.00;99.90
1626;DHT22;806;48.770;9.156;2022-12-29T15:10:53;11.90;99.90
1626;DHT22;806;48.770;9.156;2022-12-29T15:13:23;11.90;99.90
1626;DHT22;806;48.770;9.156;2022-12-29T15:15:51;11.90;99.90
1626;DHT22;806;48.770;9.156;2022-12-29T15:18:25;11.90;99.90
1626;DHT22;806;48.770;9.156;2022-12-29T15:20:55;11.90;99.90
1626;DHT22;806;48.770;9.156;2022-12-29T15:23:24;11.80;99.90
1626;DHT22;806;48.770;9.156;2022-12-29T15:25:55;11.80;99.90
1626;DHT22;806;48.770;9.156;2022-12-29T15:28:23;11.70;99.90
1626;DHT22;806;48.770;9.156;2022-12-29T15:30:52;11.80;99.90
1626;DHT22;806;48.770;9.156;2022-12-29T15:33:22;11.80;99.90
1626;DHT22;806;48.770;9.156;2022-12-29T15:35:51;11.80;99.90
1626;DHT22;806;48.770;9.156;2022-12-29T15:38:27;11.80;99.90
1626;DHT22;806;48.770;9.156;2022-12-29T15:40:56;11.80;99.90
1626;DHT22;806;48.770;9.156;2022-12-29T15:43:36;11.70;99.90
1626;DHT22;806;48.770;9.156;2022-12-29T15:46:05;11.90;99.90
1626;DHT22;806;48.770;9.156;2022-12-29T15:48:32;11.80;99.90
1626;DHT22;806;48.770;9.156;2022-12-29T15:51:01;11.90;99.90
1626;DHT22;806;48.770;9.156;2022-12-29T15:53:31;12.00;99.90
1626;DHT22;806;48.770;9.156;2022-12-29T15:56:06;11.90;99.90
1626;DHT22;806;48.770;9.156;2022-12-29T15:58:40;11.90;99.90
1626;DHT22;806;48.770;9.156;2022-12-29T16:01:17;11.90;99.90
1626;DHT22;806;48.770;9.156;2022-12-29T16:03:46;12.00;99.90
1626;DHT22;806;48.770;9.156;2022-12-29T16:06:27;11.80;99.90
1626;DHT22;806;48.770;9.156;2022-12-29T16:09:02;11.70;99.90
1626;DHT22;806;48.770;9.156;2022-12-29T16:11:33;11.60;99.90
1626;DHT22;806;48.770;9.156;2022-12-29T16:14:05;11.40;99.90
1626;DHT22;806;48.770;9.156;2022-12-29T16:16:36;11.30;99.90
1626;DHT22;806;48.770;9.156;2022-12-29T16:19:12;11.20;99.90
1626;DHT22;806;48.770;9.156;2022-12-29T16:21:41;11.00;99.90
1626;DHT22;806;48.770;9.156;2022-12-29T16:24:14;10.90;99.90
1626;DHT22;806;48.770;9.156;2022-12-29T16:26:47;10.90;99.90
1626;DHT22;806;48.770;9.156;2022-12-29T16:29:16;10.90;99.90
1626;DHT22;806;48.770;9.156;2022-12-29T16:31:51;10.80;99.90
1626;DHT22;806;48.770;9.156;2022-12-29T16:34:24;10.70;99.90
1626;DHT22;806;48.770;9.156;2022-12-29T16:36:56;10.60;99.90
1626;DHT22;806;48.770;9.156;2022-12-29T16:39:34;10.60;99.90
1626;DHT22;806;48.770;9.156;2022-12-29T16:42:33;10.60;99.90
1626;DHT22;806;48.770;9.156;2022-12-29T16:45:34;10.60;99.90
1626;DHT22;806;48.770;9.156;2022-12-29T16:48:18;10.60;99.90
1626;DHT22;806;48.770;9.156;2022-12-29T16:50:47;10.60;99.90
1626;DHT22;806;48.770;9.156;2022-12-29T16:53:21;10.50;99.90
1626;DHT22;806;48.770;9.156;2022-12-29T16:55:52;10.40;99.90
1626;DHT22;806;48.770;9.156;2022-12-29T16:58:22;10.40;99.90
1626;DHT22;806;48.770;9.156;2022-12-29T17:00:52;10.40;99.90
1626;DHT22;806;48.770;9.156;2022-12-29T17:03:21;10.40;99.90
1626;DHT22;806;48.770;9.156;2022-12-29T17:05:48;10.40;99.90
1626;DHT22;806;48.770;9.156;2022-12-29T17:08:20;10.30;99.90
1626;DHT22;806;48.770;9.156;2022-12-29T17:10:51;10.40;99.90
1626;DHT22;806;48.770;9.156;2022-12-29T17:13:36;10.40;99.90
1626;DHT22;806;48.770;9.156;2022-12-29T17:16:05;10.40;99.90